createdAt,value
2018-11-28T00:01:55.646Z,101753.92
2018-11-28T00:04:23.040Z,101759.06
2018-11-28T00:06:51.012Z,101765.99
2018-11-28T00:09:18.355Z,101769.03
2018-11-28T00:11:45.743Z,101767.79
2018-11-28T00:14:13.116Z,101764.75
2018-11-28T00:16:40.566Z,101763.59
2018-11-28T00:19:07.913Z,101758.02
2018-11-28T00:21:35.293Z,101761.80
2018-11-28T00:24:03.493Z,101754.36
2018-11-28T00:26:30.841Z,101749.94
2018-11-28T00:28:58.291Z,101743.45
2018-11-28T00:31:25.742Z,101749.52
2018-11-28T00:33:53.257Z,101759.88
2018-11-28T00:36:20.659Z,101748.64
2018-11-28T00:38:48.028Z,101752.83
2018-11-28T00:41:15.411Z,101755.48
2018-11-28T00:43:42.785Z,101753.15
2018-11-28T00:46:13.890Z,101763.00
2018-11-28T00:48:41.374Z,101771.35
2018-11-28T00:51:08.837Z,101767.88
2018-11-28T00:53:36.976Z,101765.66
2018-11-28T00:56:04.351Z,101757.87
2018-11-28T00:58:31.822Z,101751.02
2018-11-28T01:00:59.265Z,101761.09
2018-11-28T01:03:32.932Z,101765.72
2018-11-28T01:06:00.363Z,101762.45
2018-11-28T01:08:27.823Z,101751.62
2018-11-28T01:10:55.161Z,101760.17
2018-11-28T01:13:22.527Z,101765.72
2018-11-28T01:15:49.956Z,101769.05
2018-11-28T01:18:17.329Z,101769.02
2018-11-28T01:20:44.739Z,101772.27
2018-11-28T01:23:12.104Z,101768.95
2018-11-28T01:25:39.459Z,101767.23
2018-11-28T01:28:06.936Z,101768.09
2018-11-28T01:30:34.347Z,101757.27
2018-11-28T01:33:01.728Z,101763.80
2018-11-28T01:35:29.191Z,101757.62
2018-11-28T01:37:56.647Z,101765.27
2018-11-28T01:40:24.445Z,101766.58
2018-11-28T01:42:52.036Z,101768.16
2018-11-28T01:45:20.799Z,101767.14
2018-11-28T01:47:48.182Z,101761.92
2018-11-28T01:50:17.637Z,101764.27
2018-11-28T01:52:45.061Z,101759.64
2018-11-28T01:55:14.225Z,101767.84
2018-11-28T01:57:41.619Z,101761.07
2018-11-28T02:00:15.208Z,101758.51
2018-11-28T02:02:42.633Z,101751.41
2018-11-28T02:05:11.004Z,101757.02
2018-11-28T02:07:38.496Z,101760.05
2018-11-28T02:10:10.021Z,101760.78
2018-11-28T02:12:37.433Z,101760.58
2018-11-28T02:15:05.983Z,101760.94
2018-11-28T02:17:33.423Z,101755.72
2018-11-28T02:20:00.963Z,101760.16
2018-11-28T02:22:28.381Z,101760.44
2018-11-28T02:24:55.770Z,101756.95
2018-11-28T02:27:23.207Z,101757.39
2018-11-28T02:29:50.587Z,101761.19
2018-11-28T02:32:18.387Z,101759.83
2018-11-28T02:34:45.877Z,101767.23
2018-11-28T02:37:13.356Z,101761.40
2018-11-28T02:39:40.738Z,101765.63
2018-11-28T02:42:08.113Z,101759.37
2018-11-28T02:44:35.562Z,101768.12
2018-11-28T02:47:03.065Z,101763.38
2018-11-28T02:49:30.513Z,101766.59
2018-11-28T02:51:57.923Z,101771.63
2018-11-28T02:54:25.270Z,101773.00
2018-11-28T02:56:52.777Z,101777.78
2018-11-28T02:59:20.116Z,101773.27
2018-11-28T03:01:47.684Z,101773.30
2018-11-28T03:04:15.030Z,101771.60
2018-11-28T03:06:42.388Z,101777.27
2018-11-28T03:09:09.736Z,101777.51
2018-11-28T03:11:37.178Z,101784.84
2018-11-28T03:14:04.918Z,101778.77
2018-11-28T03:16:32.387Z,101787.34
2018-11-28T03:18:59.757Z,101795.45
2018-11-28T03:21:27.082Z,101791.24
2018-11-28T03:23:54.445Z,101779.20
2018-11-28T03:26:21.797Z,101783.57
2018-11-28T03:28:49.456Z,101790.39
2018-11-28T03:31:17.020Z,101792.98
2018-11-28T03:33:44.399Z,101787.88
2018-11-28T03:36:11.835Z,101785.50
2018-11-28T03:38:39.192Z,101793.28
2018-11-28T03:41:06.545Z,101792.28
2018-11-28T03:43:34.592Z,101786.62
2018-11-28T03:46:01.952Z,101794.24
2018-11-28T03:48:29.340Z,101790.95
2018-11-28T03:50:56.682Z,101796.20
2018-11-28T03:53:24.040Z,101788.17
2018-11-28T03:55:51.512Z,101779.45
2018-11-28T03:58:18.845Z,101786.98
2018-11-28T04:00:46.331Z,101789.58
2018-11-28T04:03:13.772Z,101778.91
2018-11-28T04:05:41.280Z,101783.98
2018-11-28T04:08:08.622Z,101787.28
2018-11-28T04:10:36.007Z,101775.87
2018-11-28T04:13:03.516Z,101778.98
2018-11-28T04:15:30.881Z,101784.13
2018-11-28T04:17:58.304Z,101783.91
2018-11-28T04:20:30.238Z,101776.23
2018-11-28T04:22:57.736Z,101778.45
2018-11-28T04:25:25.218Z,101773.30
2018-11-28T04:27:52.632Z,101767.61
2018-11-28T04:30:22.134Z,101774.67
2018-11-28T04:32:50.175Z,101764.30
2018-11-28T04:35:17.646Z,101766.54
2018-11-28T04:37:45.609Z,101766.48
2018-11-28T04:40:14.092Z,101766.54
2018-11-28T04:42:42.025Z,101762.70
2018-11-28T04:45:11.895Z,101768.45
2018-11-28T04:47:39.913Z,101767.05
2018-11-28T04:50:08.611Z,101773.19
2018-11-28T04:52:35.971Z,101763.16
2018-11-28T04:55:04.978Z,101757.68
2018-11-28T04:57:32.467Z,101763.91
2018-11-28T04:59:59.890Z,101775.34
2018-11-28T05:02:27.377Z,101775.81
2018-11-28T05:04:54.863Z,101769.67
2018-11-28T05:07:25.517Z,101772.75
2018-11-28T05:09:53.142Z,101770.75
2018-11-28T05:12:21.122Z,101770.34
2018-11-28T05:14:48.606Z,101776.03
2018-11-28T05:17:16.019Z,101784.23
2018-11-28T05:19:43.373Z,101784.11
2018-11-28T05:22:10.860Z,101788.66
2018-11-28T05:24:38.376Z,101793.85
2018-11-28T05:27:05.708Z,101787.91
2018-11-28T05:29:33.282Z,101787.66
2018-11-28T05:32:00.644Z,101785.59
2018-11-28T05:34:28.016Z,101782.01
2018-11-28T05:36:55.376Z,101790.75
2018-11-28T05:39:23.052Z,101788.76
2018-11-28T05:41:50.390Z,101778.31
2018-11-28T05:44:17.780Z,101775.36
2018-11-28T05:46:45.154Z,101774.44
2018-11-28T05:49:15.125Z,101770.88
2018-11-28T05:51:40.029Z,101771.55
2018-11-28T05:54:07.510Z,101773.77
2018-11-28T05:56:34.960Z,101773.80
2018-11-28T05:59:03.457Z,101776.75
2018-11-28T06:01:29.811Z,101771.91
2018-11-28T06:03:57.311Z,101762.69
2018-11-28T06:06:24.673Z,101761.47
2018-11-28T06:08:52.684Z,101760.44
2018-11-28T06:11:20.177Z,101764.77
2018-11-28T06:13:47.531Z,101765.80
2018-11-28T06:16:15.076Z,101769.11
2018-11-28T06:18:42.481Z,101773.71
2018-11-28T06:21:09.845Z,101772.75
2018-11-28T06:23:37.192Z,101774.36
2018-11-28T06:26:05.017Z,101777.11
2018-11-28T06:28:32.445Z,101773.44
2018-11-28T06:30:59.846Z,101767.96
2018-11-28T06:33:27.221Z,101772.49
2018-11-28T06:35:54.712Z,101776.03
2018-11-28T06:38:22.047Z,101779.23
2018-11-28T06:40:49.543Z,101779.87
2018-11-28T06:43:17.007Z,101778.54
2018-11-28T06:45:44.365Z,101788.50
2018-11-28T06:48:11.732Z,101790.63
2018-11-28T06:50:39.213Z,101787.18
2018-11-28T06:53:06.748Z,101786.42
2018-11-28T06:55:34.141Z,101783.67
2018-11-28T06:58:01.513Z,101788.41
2018-11-28T07:00:29.424Z,101788.64
2018-11-28T07:02:56.792Z,101795.16
2018-11-28T07:05:24.896Z,101799.52
2018-11-28T07:07:52.712Z,101786.39
2018-11-28T07:10:21.173Z,101795.52
2018-11-28T07:12:48.572Z,101790.63
2018-11-28T07:15:20.088Z,101796.80
2018-11-28T07:17:47.466Z,101800.28
2018-11-28T07:20:15.852Z,101803.13
2018-11-28T07:22:43.324Z,101802.52
2018-11-28T07:25:12.714Z,101800.95
2018-11-28T07:27:45.116Z,101802.91
2018-11-28T07:30:11.142Z,101798.19
2018-11-28T07:32:38.640Z,101798.38
2018-11-28T07:35:06.754Z,101808.83
2018-11-28T07:37:34.132Z,101803.89
2018-11-28T07:40:01.548Z,101803.55
2018-11-28T07:42:28.892Z,101800.47
2018-11-28T07:44:56.304Z,101792.42
2018-11-28T07:47:23.664Z,101793.98
2018-11-28T07:49:51.048Z,101795.34
2018-11-28T07:52:18.479Z,101795.95
2018-11-28T07:54:45.872Z,101796.45
2018-11-28T07:57:13.496Z,101802.75
2018-11-28T07:59:40.861Z,101808.89
2018-11-28T08:02:08.291Z,101808.59
2018-11-28T08:04:35.708Z,101808.22
2018-11-28T08:07:03.163Z,101811.13
2018-11-28T08:09:30.538Z,101814.28
2018-11-28T08:11:57.920Z,101809.03
2018-11-28T08:14:25.335Z,101805.70
2018-11-28T08:16:52.757Z,101816.05
2018-11-28T08:19:23.994Z,101827.83
2018-11-28T08:21:47.480Z,101819.75
2018-11-28T08:24:14.852Z,101812.48
2018-11-28T08:26:42.398Z,101819.58
2018-11-28T08:29:09.878Z,101811.18
2018-11-28T08:31:37.219Z,101813.64
2018-11-28T08:34:04.905Z,101821.91
2018-11-28T08:36:32.222Z,101812.89
2018-11-28T08:38:59.664Z,101809.61
2018-11-28T08:41:27.600Z,101806.90
2018-11-28T08:43:54.920Z,101799.70
2018-11-28T08:46:22.346Z,101814.28
2018-11-28T08:48:49.697Z,101807.61
2018-11-28T08:51:17.201Z,101814.68
2018-11-28T08:53:45.107Z,101813.61
2018-11-28T08:56:12.553Z,101813.48
2018-11-28T08:58:39.994Z,101812.52
2018-11-28T09:01:07.430Z,101814.98
2018-11-28T09:03:38.549Z,101815.27
2018-11-28T09:06:06.272Z,101814.11
2018-11-28T09:08:33.646Z,101811.17
2018-11-28T09:11:01.100Z,101814.48
2018-11-28T09:13:28.485Z,101807.20
2018-11-28T09:15:55.897Z,101815.80
2018-11-28T09:18:24.129Z,101824.30
2018-11-28T09:20:51.520Z,101822.92
2018-11-28T09:23:18.866Z,101824.78
2018-11-28T09:25:46.292Z,101823.91
2018-11-28T09:28:13.634Z,101815.81
2018-11-28T09:30:41.001Z,101799.33
2018-11-28T09:33:08.779Z,101804.97
2018-11-28T09:35:35.777Z,101810.89
2018-11-28T09:38:03.122Z,101809.57
2018-11-28T09:40:30.592Z,101808.52
2018-11-28T09:42:58.811Z,101797.12
2018-11-28T09:45:26.633Z,101797.89
2018-11-28T09:47:54.032Z,101800.50
2018-11-28T09:50:22.904Z,101797.23
2018-11-28T09:52:50.471Z,101794.98
2018-11-28T09:55:19.675Z,101797.84
2018-11-28T09:57:47.346Z,101795.23
2018-11-28T10:00:18.227Z,101792.67
2018-11-28T10:02:45.611Z,101788.84
2018-11-28T10:05:15.333Z,101785.09
2018-11-28T10:07:42.885Z,101779.91
2018-11-28T10:10:11.625Z,101782.48
2018-11-28T10:12:38.997Z,101774.67
2018-11-28T10:15:12.872Z,101777.86
2018-11-28T10:17:40.387Z,101779.25
2018-11-28T10:20:09.060Z,101779.97
2018-11-28T10:22:36.423Z,101776.47
2018-11-28T10:25:04.138Z,101779.42
2018-11-28T10:27:31.491Z,101770.72
2018-11-28T10:29:59.500Z,101767.64
2018-11-28T10:32:26.846Z,101762.13
2018-11-28T10:34:54.193Z,101767.24
2018-11-28T10:37:21.565Z,101758.19
2018-11-28T10:39:49.718Z,101754.25
2018-11-28T10:42:17.145Z,101741.39
2018-11-28T10:44:44.558Z,101748.02
2018-11-28T10:47:12.034Z,101745.48
2018-11-28T10:49:39.439Z,101735.84
2018-11-28T10:52:06.994Z,101722.11
2018-11-28T10:54:34.463Z,101732.47
2018-11-28T10:57:01.903Z,101723.38
2018-11-28T10:59:29.257Z,101728.09
2018-11-28T11:02:02.360Z,101725.95
2018-11-28T11:05:34.370Z,101721.02
2018-11-28T11:08:07.338Z,101722.88
2018-11-28T11:10:40.372Z,101725.65
2018-11-28T11:13:13.494Z,101719.52
2018-11-28T11:15:41.302Z,101719.95
2018-11-28T11:18:10.749Z,101715.23
2018-11-28T11:20:37.290Z,101715.22
2018-11-28T11:23:06.141Z,101719.13
2018-11-28T11:25:33.661Z,101716.53
2018-11-28T11:28:01.053Z,101707.42
2018-11-28T11:30:28.392Z,101713.98
2018-11-28T11:32:55.763Z,101705.70
2018-11-28T11:35:23.595Z,101703.09
2018-11-28T11:37:51.464Z,101693.97
2018-11-28T11:40:23.890Z,101692.20
2018-11-28T11:42:51.806Z,101695.71
2018-11-28T11:45:19.144Z,101698.33
2018-11-28T11:47:46.643Z,101698.77
2018-11-28T11:50:16.112Z,101690.91
2018-11-28T11:52:43.774Z,101688.73
2018-11-28T11:55:13.287Z,101687.43
2018-11-28T11:57:40.739Z,101687.41
2018-11-28T12:00:14.749Z,101685.66
2018-11-28T12:02:43.385Z,101685.24
2018-11-28T12:05:11.754Z,101688.29
2018-11-28T12:07:39.233Z,101683.48
2018-11-28T12:10:10.010Z,101682.16
2018-11-28T12:12:37.471Z,101682.14
2018-11-28T12:15:07.465Z,101688.30
2018-11-28T12:17:35.110Z,101683.92
2018-11-28T12:20:02.550Z,101690.45
2018-11-28T12:22:29.919Z,101683.50
2018-11-28T12:24:57.249Z,101681.31
2018-11-28T12:27:24.642Z,101685.22
2018-11-28T12:29:52.065Z,101677.82
2018-11-28T12:32:19.717Z,101677.79
2018-11-28T12:34:50.413Z,101681.69
2018-11-28T12:37:14.593Z,101673.05
2018-11-28T12:39:42.036Z,101676.93
2018-11-28T12:42:09.571Z,101671.73
2018-11-28T12:44:37.008Z,101670.81
2018-11-28T12:47:05.274Z,101661.14
2018-11-28T12:49:32.655Z,101663.23
2018-11-28T12:52:00.159Z,101657.44
2018-11-28T12:54:27.610Z,101655.75
2018-11-28T12:56:55.214Z,101653.17
2018-11-28T12:59:22.676Z,101646.21
2018-11-28T13:01:50.152Z,101646.96
2018-11-28T13:04:17.543Z,101646.07
2018-11-28T13:06:44.935Z,101643.46
2018-11-28T13:09:12.336Z,101644.02
2018-11-28T13:11:39.761Z,101648.09
2018-11-28T13:14:07.105Z,101649.34
2018-11-28T13:16:34.626Z,101649.06
2018-11-28T13:19:02.008Z,101648.41
2018-11-28T13:21:29.364Z,101636.59
2018-11-28T13:23:56.677Z,101641.95
2018-11-28T13:26:24.156Z,101648.09
2018-11-28T13:28:51.530Z,101648.91
2018-11-28T13:31:18.908Z,101645.88
2018-11-28T13:33:46.254Z,101643.26
2018-11-28T13:36:13.676Z,101638.95
2018-11-28T13:38:41.053Z,101635.98
2018-11-28T13:41:08.418Z,101636.82
2018-11-28T13:43:36.305Z,101638.91
2018-11-28T13:46:07.160Z,101628.48
2018-11-28T13:48:31.822Z,101621.72
2018-11-28T13:50:59.288Z,101630.18
2018-11-28T13:53:26.706Z,101623.98
2018-11-28T13:56:57.244Z,101618.48
2018-11-28T13:58:23.785Z,101621.19
2018-11-28T14:00:51.176Z,101628.06
2018-11-28T14:03:18.637Z,101618.55
2018-11-28T14:05:46.091Z,101627.10
2018-11-28T14:08:13.469Z,101629.95
2018-11-28T14:10:40.923Z,101622.83
2018-11-28T14:13:08.346Z,101615.02
2018-11-28T14:15:35.675Z,101610.60
2018-11-28T14:18:12.657Z,101606.75
2018-11-28T14:20:44.583Z,101614.22
2018-11-28T14:23:12.108Z,101612.89
2018-11-28T14:25:39.518Z,101619.40
2018-11-28T14:28:07.515Z,101618.48
2018-11-28T14:30:36.286Z,101618.52
2018-11-28T14:33:03.735Z,101622.89
2018-11-28T14:35:31.412Z,101619.83
2018-11-28T14:37:58.790Z,101613.88
2018-11-28T14:40:26.242Z,101609.84
2018-11-28T14:42:54.934Z,101606.35
2018-11-28T14:45:22.397Z,101602.86
2018-11-28T14:47:50.683Z,101599.47
2018-11-28T14:50:19.138Z,101600.36
2018-11-28T14:52:47.422Z,101595.56
2018-11-28T14:55:17.486Z,101597.20
2018-11-28T14:57:44.892Z,101600.30
2018-11-28T15:00:15.342Z,101598.53
2018-11-28T15:02:42.867Z,101593.36
2018-11-28T15:05:14.988Z,101598.11
2018-11-28T15:07:42.368Z,101597.70
2018-11-28T15:10:11.068Z,101590.77
2018-11-28T15:12:38.443Z,101593.38
2018-11-28T15:15:07.055Z,101591.62
2018-11-28T15:17:34.416Z,101582.92
2018-11-28T15:20:01.882Z,101587.71
2018-11-28T15:22:29.349Z,101588.16
2018-11-28T15:24:56.748Z,101587.72
2018-11-28T15:27:24.195Z,101588.55
2018-11-28T15:29:52.125Z,101600.73
2018-11-28T15:32:19.629Z,101589.84
2018-11-28T15:34:47.046Z,101588.16
2018-11-28T15:37:14.541Z,101582.07
2018-11-28T15:39:42.069Z,101585.98
2018-11-28T15:42:09.579Z,101586.45
2018-11-28T15:44:37.658Z,101588.12
2018-11-28T15:47:05.355Z,101591.62
2018-11-28T15:49:32.747Z,101598.54
2018-11-28T15:52:00.161Z,101599.87
2018-11-28T15:54:27.538Z,101588.16
2018-11-28T15:56:54.978Z,101584.25
2018-11-28T15:59:22.364Z,101581.19
2018-11-28T16:01:49.738Z,101576.84
2018-11-28T16:04:17.230Z,101579.49
2018-11-28T16:06:44.696Z,101575.53
2018-11-28T16:09:17.828Z,101571.63
2018-11-28T16:11:45.250Z,101569.84
2018-11-28T16:14:12.631Z,101563.35
2018-11-28T16:16:40.060Z,101569.88
2018-11-28T16:19:07.439Z,101555.07
2018-11-28T16:21:34.816Z,101553.80
2018-11-28T16:24:02.189Z,101561.60
2018-11-28T16:26:30.348Z,101560.77
2018-11-28T16:28:57.744Z,101556.84
2018-11-28T16:31:25.348Z,101552.37
2018-11-28T16:33:52.990Z,101559.44
2018-11-28T16:36:20.333Z,101553.36
2018-11-28T16:38:47.704Z,101555.97
2018-11-28T16:41:15.132Z,101554.64
2018-11-28T16:43:42.530Z,101548.13
2018-11-28T16:46:09.890Z,101550.72
2018-11-28T16:48:37.305Z,101542.02
2018-11-28T16:51:05.067Z,101546.37
2018-11-28T16:53:32.582Z,101545.94
2018-11-28T16:56:00.027Z,101552.44
2018-11-28T16:58:27.479Z,101553.26
2018-11-28T17:00:54.970Z,101554.21
2018-11-28T17:03:22.405Z,101564.67
2018-11-28T17:05:50.393Z,101569.84
2018-11-28T17:08:17.946Z,101569.01
2018-11-28T17:10:45.289Z,101557.70
2018-11-28T17:13:12.675Z,101555.95
2018-11-28T17:15:40.153Z,101541.17
2018-11-28T17:18:07.505Z,101534.63
2018-11-28T17:20:36.211Z,101532.45
2018-11-28T17:23:04.193Z,101535.45
2018-11-28T17:25:32.244Z,101529.39
2018-11-28T17:27:59.677Z,101527.16
2018-11-28T17:30:28.399Z,101530.68
2018-11-28T17:32:55.783Z,101525.93
2018-11-28T17:35:23.273Z,101518.05
2018-11-28T17:37:51.047Z,101513.27
2018-11-28T17:40:21.633Z,101514.02
2018-11-28T17:42:50.421Z,101510.26
2018-11-28T17:45:18.487Z,101507.95
2018-11-28T17:47:46.577Z,101505.83
2018-11-28T17:50:16.178Z,101511.58
2018-11-28T17:52:46.589Z,101507.13
2018-11-28T17:55:16.017Z,101502.86
2018-11-28T17:57:43.367Z,101508.56
2018-11-28T18:00:12.427Z,101493.30
2018-11-28T18:02:40.458Z,101488.91
2018-11-28T18:05:09.265Z,101484.99
2018-11-28T18:07:36.707Z,101485.38
2018-11-28T18:10:07.268Z,101478.43
2018-11-28T18:12:34.597Z,101473.20
2018-11-28T18:15:02.098Z,101486.30
2018-11-28T18:17:29.468Z,101487.57
2018-11-28T18:19:57.875Z,101480.92
2018-11-28T18:22:25.274Z,101479.31
2018-11-28T18:24:52.833Z,101470.05
2018-11-28T18:27:20.312Z,101464.48
2018-11-28T18:29:47.771Z,101468.78
2018-11-28T18:32:15.126Z,101464.48
2018-11-28T18:34:42.558Z,101466.98
2018-11-28T18:37:09.947Z,101469.67
2018-11-28T18:39:37.342Z,101477.13
2018-11-28T18:42:04.712Z,101474.90
2018-11-28T18:44:32.142Z,101470.98
2018-11-28T18:46:59.590Z,101471.55
2018-11-28T18:49:27.150Z,101470.94
2018-11-28T18:51:54.472Z,101475.88
2018-11-28T18:54:21.910Z,101479.34
2018-11-28T18:56:49.280Z,101484.18
2018-11-28T18:59:17.298Z,101482.80
2018-11-28T19:01:48.410Z,101486.34
2018-11-28T19:04:12.247Z,101490.66
2018-11-28T19:06:39.823Z,101481.07
2018-11-28T19:09:10.053Z,101493.28
2018-11-28T19:11:37.471Z,101494.53
2018-11-28T19:14:05.788Z,101500.14
2018-11-28T19:16:37.857Z,101504.09
2018-11-28T19:19:00.688Z,101498.52
2018-11-28T19:21:28.189Z,101500.20
2018-11-28T19:23:55.540Z,101496.72
2018-11-28T19:26:22.905Z,101499.27
2018-11-28T19:28:50.534Z,101485.38
2018-11-28T19:31:18.000Z,101482.31
2018-11-28T19:33:46.339Z,101466.73
2018-11-28T19:36:13.791Z,101465.47
2018-11-28T19:38:41.137Z,101467.20
2018-11-28T19:41:13.522Z,101455.80
2018-11-28T19:43:41.116Z,101456.69
2018-11-28T19:46:08.557Z,101463.60
2018-11-28T19:48:36.001Z,101470.65
2018-11-28T19:51:03.489Z,101459.30
2018-11-28T19:53:30.900Z,101445.39
2018-11-28T19:55:58.412Z,101452.77
2018-11-28T19:58:25.745Z,101457.56
2018-11-28T20:00:53.176Z,101458.55
2018-11-28T20:03:20.673Z,101448.05
2018-11-28T20:05:48.130Z,101441.05
2018-11-28T20:08:15.617Z,101442.77
2018-11-28T20:10:42.984Z,101439.28
2018-11-28T20:13:10.577Z,101446.70
2018-11-28T20:15:40.582Z,101458.08
2018-11-28T20:18:08.112Z,101458.48
2018-11-28T20:20:35.533Z,101465.43
2018-11-28T20:23:03.094Z,101454.95
2018-11-28T20:25:30.577Z,101448.88
2018-11-28T20:28:00.312Z,101445.41
2018-11-28T20:30:31.440Z,101436.70
2018-11-28T20:32:58.946Z,101436.24
2018-11-28T20:35:26.324Z,101442.23
2018-11-28T20:37:53.750Z,101441.34
2018-11-28T20:40:21.181Z,101440.16
2018-11-28T20:42:50.460Z,101442.28
2018-11-28T20:45:17.915Z,101440.13
2018-11-28T20:47:45.457Z,101426.00
2018-11-28T20:50:15.209Z,101426.55
2018-11-28T20:52:44.674Z,101430.52
2018-11-28T20:55:12.152Z,101430.17
2018-11-28T20:57:39.612Z,101432.36
2018-11-28T21:00:10.453Z,101425.30
2018-11-28T21:02:37.921Z,101422.64
2018-11-28T21:05:05.346Z,101422.77
2018-11-28T21:07:32.665Z,101415.30
2018-11-28T21:10:05.784Z,101410.58
2018-11-28T21:12:33.293Z,101404.44
2018-11-28T21:15:01.914Z,101401.36
2018-11-28T21:17:29.374Z,101397.95
2018-11-28T21:19:56.744Z,101388.77
2018-11-28T21:22:24.194Z,101384.89
2018-11-28T21:24:51.762Z,101380.13
2018-11-28T21:27:19.223Z,101374.82
2018-11-28T21:29:46.606Z,101368.66
2018-11-28T21:32:13.987Z,101366.14
2018-11-28T21:34:41.368Z,101369.55
2018-11-28T21:37:08.767Z,101367.06
2018-11-28T21:39:36.238Z,101374.03
2018-11-28T21:42:04.232Z,101373.89
2018-11-28T21:44:31.674Z,101377.38
2018-11-28T21:46:59.300Z,101357.30
2018-11-28T21:49:26.679Z,101351.31
2018-11-28T21:51:54.069Z,101344.82
2018-11-28T21:54:21.524Z,101345.66
2018-11-28T21:56:49.048Z,101337.84
2018-11-28T21:59:17.150Z,101332.08
2018-11-28T22:01:44.678Z,101336.52
2018-11-28T22:04:12.036Z,101324.30
2018-11-28T22:06:39.386Z,101327.73
2018-11-28T22:09:08.697Z,101334.75
2018-11-28T22:11:36.565Z,101329.39
2018-11-28T22:14:04.445Z,101339.67
2018-11-28T22:16:31.789Z,101329.63
2018-11-28T22:18:59.199Z,101329.09
2018-11-28T22:21:26.651Z,101323.62
2018-11-28T22:23:54.143Z,101342.84
2018-11-28T22:26:21.485Z,101342.64
2018-11-28T22:28:49.073Z,101333.08
2018-11-28T22:31:16.474Z,101339.18
2018-11-28T22:33:44.457Z,101339.65
2018-11-28T22:36:11.818Z,101335.22
2018-11-28T22:38:39.187Z,101338.72
2018-11-28T22:41:06.591Z,101339.13
2018-11-28T22:43:34.490Z,101347.91
2018-11-28T22:46:01.817Z,101355.27
2018-11-28T22:48:29.352Z,101350.83
2018-11-28T22:50:56.666Z,101350.30
2018-11-28T22:53:24.070Z,101352.19
2018-11-28T22:55:51.946Z,101336.46
2018-11-28T22:58:19.339Z,101339.98
2018-11-28T23:00:52.508Z,101347.39
2018-11-28T23:03:19.908Z,101343.90
2018-11-28T23:05:50.422Z,101333.39
2018-11-28T23:08:18.728Z,101326.08
2018-11-28T23:10:46.584Z,101324.66
2018-11-28T23:13:16.124Z,101328.22
2018-11-28T23:15:43.552Z,101324.30
2018-11-28T23:18:11.320Z,101331.61
2018-11-28T23:20:38.853Z,101328.03
2018-11-28T23:23:07.321Z,101327.50
2018-11-28T23:25:34.841Z,101328.63
2018-11-28T23:28:02.933Z,101319.41
2018-11-28T23:30:30.363Z,101311.87
2018-11-28T23:32:57.768Z,101299.05
2018-11-28T23:35:25.340Z,101309.09
2018-11-28T23:37:52.696Z,101293.41
2018-11-28T23:40:25.239Z,101296.25
2018-11-28T23:42:53.529Z,101282.94
2018-11-28T23:45:21.433Z,101285.72
2018-11-28T23:47:49.335Z,101282.14
2018-11-28T23:50:18.533Z,101275.05
2018-11-28T23:52:46.327Z,101273.47
2018-11-28T23:55:14.745Z,101277.14
2018-11-28T23:57:42.177Z,101274.12
